createdAt,value
2017-10-08T00:02:01.878Z,10.80
2017-10-08T00:04:28.131Z,10.70
2017-10-08T00:06:55.470Z,10.70
2017-10-08T00:09:21.741Z,10.70
2017-10-08T00:11:48.002Z,10.80
2017-10-08T00:14:14.293Z,10.80
2017-10-08T00:16:40.542Z,10.80
2017-10-08T00:19:06.798Z,10.80
2017-10-08T00:21:33.825Z,10.80
2017-10-08T00:24:00.082Z,10.80
2017-10-08T00:26:26.398Z,10.80
2017-10-08T00:28:52.669Z,10.80
2017-10-08T00:31:18.922Z,10.80
2017-10-08T00:33:45.213Z,10.90
2017-10-08T00:36:11.498Z,10.90
2017-10-08T00:38:37.786Z,10.80
2017-10-08T00:41:04.066Z,10.90
2017-10-08T00:43:30.382Z,10.90
2017-10-08T00:45:56.658Z,10.90
2017-10-08T00:48:22.958Z,10.80
2017-10-08T00:50:49.323Z,10.80
2017-10-08T00:53:15.630Z,10.90
2017-10-08T00:55:43.415Z,10.90
2017-10-08T00:58:09.982Z,10.90
2017-10-08T01:00:37.156Z,10.90
2017-10-08T01:03:03.478Z,10.90
2017-10-08T01:05:29.778Z,10.90
2017-10-08T01:07:56.050Z,10.90
2017-10-08T01:10:22.338Z,10.90
2017-10-08T01:12:48.638Z,10.90
2017-10-08T01:15:14.925Z,10.90
2017-10-08T01:17:41.189Z,10.90
2017-10-08T01:20:07.530Z,10.90
2017-10-08T01:22:33.834Z,10.90
2017-10-08T01:25:00.154Z,10.90
2017-10-08T01:27:26.490Z,10.90
2017-10-08T01:29:52.798Z,10.90
2017-10-08T01:32:19.126Z,10.90
2017-10-08T01:34:45.458Z,10.90
2017-10-08T01:37:11.792Z,10.90
2017-10-08T01:39:38.094Z,10.90
2017-10-08T01:42:04.394Z,10.80
2017-10-08T01:44:30.679Z,10.80
2017-10-08T01:46:56.951Z,10.80
2017-10-08T01:49:23.293Z,10.90
2017-10-08T01:51:49.566Z,10.90
2017-10-08T01:54:15.835Z,10.90
2017-10-08T01:56:42.170Z,10.90
2017-10-08T01:59:08.446Z,10.90
2017-10-08T02:01:34.738Z,10.90
2017-10-08T02:04:01.114Z,10.90
2017-10-08T02:06:27.398Z,10.80
2017-10-08T02:08:53.674Z,10.80
2017-10-08T02:11:19.978Z,10.80
2017-10-08T02:13:46.278Z,10.80
2017-10-08T02:16:12.582Z,10.80
2017-10-08T02:18:38.886Z,10.80
2017-10-08T02:21:05.915Z,10.80
2017-10-08T02:23:32.926Z,10.80
2017-10-08T02:25:59.962Z,10.80
2017-10-08T02:28:26.229Z,10.70
2017-10-08T02:30:52.504Z,10.80
2017-10-08T02:33:18.793Z,10.80
2017-10-08T02:35:45.070Z,10.80
2017-10-08T02:38:11.330Z,10.80
2017-10-08T02:40:37.594Z,10.80
2017-10-08T02:43:03.898Z,10.80
2017-10-08T02:45:30.166Z,10.80
2017-10-08T02:47:57.222Z,10.70
2017-10-08T02:50:24.273Z,10.80
2017-10-08T02:52:50.549Z,10.80
2017-10-08T02:55:16.834Z,10.80
2017-10-08T02:57:43.074Z,10.80
2017-10-08T03:00:10.382Z,10.80
2017-10-08T03:02:36.678Z,10.90
2017-10-08T03:05:02.961Z,10.90
2017-10-08T03:07:29.228Z,11.00
2017-10-08T03:09:55.526Z,11.00
2017-10-08T03:12:21.782Z,11.00
2017-10-08T03:14:48.050Z,11.10
2017-10-08T03:17:14.334Z,11.10
2017-10-08T03:19:40.586Z,11.10
2017-10-08T03:22:06.906Z,11.10
2017-10-08T03:24:33.203Z,11.20
2017-10-08T03:26:59.479Z,11.20
2017-10-08T03:29:25.714Z,11.20
2017-10-08T03:31:51.994Z,11.20
2017-10-08T03:34:19.006Z,11.20
2017-10-08T03:36:45.262Z,11.20
2017-10-08T03:39:11.566Z,11.20
2017-10-08T03:41:37.801Z,11.20
2017-10-08T03:44:04.091Z,11.20
2017-10-08T03:46:30.382Z,11.20
2017-10-08T03:48:56.646Z,11.20
2017-10-08T03:51:22.914Z,11.20
2017-10-08T03:53:49.946Z,11.20
2017-10-08T03:56:16.242Z,11.20
2017-10-08T03:58:42.510Z,11.20
2017-10-08T04:01:08.788Z,11.30
2017-10-08T04:03:35.842Z,11.20
2017-10-08T04:06:02.106Z,11.20
2017-10-08T04:08:29.163Z,11.30
2017-10-08T04:10:55.427Z,11.30
2017-10-08T04:13:22.775Z,11.30
2017-10-08T04:15:49.091Z,11.30
2017-10-08T04:18:15.374Z,11.30
2017-10-08T04:20:41.686Z,11.30
2017-10-08T04:23:07.999Z,11.40
2017-10-08T04:25:34.269Z,11.40
2017-10-08T04:28:00.565Z,11.40
2017-10-08T04:30:26.838Z,11.40
2017-10-08T04:32:53.866Z,11.40
2017-10-08T04:35:20.875Z,11.40
2017-10-08T04:37:47.886Z,11.50
2017-10-08T04:40:14.190Z,11.40
2017-10-08T04:42:40.472Z,11.50
2017-10-08T04:45:06.774Z,11.50
2017-10-08T04:47:33.081Z,11.50
2017-10-08T04:49:59.333Z,11.50
2017-10-08T04:52:25.630Z,11.50
2017-10-08T04:54:51.898Z,11.50
2017-10-08T04:57:18.146Z,11.50
2017-10-08T04:59:44.451Z,11.50
2017-10-08T05:02:10.702Z,11.50
2017-10-08T05:04:37.966Z,11.50
2017-10-08T05:07:04.274Z,11.60
2017-10-08T05:09:30.530Z,11.60
2017-10-08T05:11:57.575Z,11.70
2017-10-08T05:14:23.850Z,11.60
2017-10-08T05:16:50.150Z,11.60
2017-10-08T05:19:17.414Z,11.70
2017-10-08T05:21:43.683Z,11.70
2017-10-08T05:24:09.963Z,11.70
2017-10-08T05:26:36.217Z,11.70
2017-10-08T05:29:03.554Z,11.70
2017-10-08T05:31:29.818Z,11.70
2017-10-08T05:33:56.825Z,11.70
2017-10-08T05:36:23.850Z,11.70
2017-10-08T05:38:50.122Z,11.60
2017-10-08T05:41:17.478Z,11.70
2017-10-08T05:43:43.761Z,11.70
2017-10-08T05:46:10.042Z,11.70
2017-10-08T05:48:36.294Z,11.70
2017-10-08T05:51:02.586Z,11.70
2017-10-08T05:53:28.843Z,11.80
2017-10-08T05:55:55.114Z,11.70
2017-10-08T05:58:21.401Z,11.70
2017-10-08T06:00:47.690Z,11.70
2017-10-08T06:03:13.963Z,11.80
2017-10-08T06:05:40.246Z,11.80
2017-10-08T06:08:06.530Z,11.80
2017-10-08T06:10:32.824Z,11.80
2017-10-08T06:12:59.121Z,11.80
2017-10-08T06:15:25.419Z,11.80
2017-10-08T06:17:51.687Z,11.90
2017-10-08T06:20:17.981Z,11.90
2017-10-08T06:22:44.627Z,11.90
2017-10-08T06:25:10.950Z,11.90
2017-10-08T06:27:37.238Z,12.00
2017-10-08T06:30:03.490Z,12.00
2017-10-08T06:32:29.766Z,12.00
2017-10-08T06:34:56.097Z,12.10
2017-10-08T06:37:22.415Z,12.20
2017-10-08T06:39:48.690Z,12.30
2017-10-08T06:42:14.973Z,12.40
2017-10-08T06:44:41.245Z,12.40
2017-10-08T06:47:07.514Z,12.40
2017-10-08T06:49:33.834Z,12.50
2017-10-08T06:52:00.094Z,12.50
2017-10-08T06:54:26.506Z,12.50
2017-10-08T06:56:52.826Z,12.50
2017-10-08T06:59:19.087Z,12.40
2017-10-08T07:01:46.378Z,12.50
2017-10-08T07:04:12.670Z,12.70
2017-10-08T07:06:38.934Z,12.80
2017-10-08T07:09:05.962Z,12.70
2017-10-08T07:11:33.003Z,12.70
2017-10-08T07:14:00.040Z,12.70
2017-10-08T07:16:26.306Z,12.70
2017-10-08T07:18:52.586Z,12.70
2017-10-08T07:21:18.902Z,12.70
2017-10-08T07:23:45.185Z,12.70
2017-10-08T07:26:11.503Z,12.70
2017-10-08T07:28:38.526Z,12.90
2017-10-08T07:31:04.778Z,12.90
2017-10-08T07:33:31.090Z,13.20
2017-10-08T07:35:57.350Z,13.30
2017-10-08T07:38:23.622Z,13.10
2017-10-08T07:40:49.950Z,13.10
2017-10-08T07:43:16.214Z,13.00
2017-10-08T07:45:43.222Z,13.00
2017-10-08T07:48:10.289Z,13.00
2017-10-08T07:50:36.614Z,13.00
2017-10-08T07:53:02.934Z,13.10
2017-10-08T07:55:29.250Z,13.10
2017-10-08T07:57:55.522Z,13.30
2017-10-08T08:00:22.545Z,13.20
2017-10-08T08:02:49.581Z,13.20
2017-10-08T08:05:15.867Z,13.20
2017-10-08T08:07:42.190Z,13.20
2017-10-08T08:10:08.474Z,13.30
2017-10-08T08:12:34.767Z,13.40
2017-10-08T08:15:01.764Z,13.40
2017-10-08T08:17:28.802Z,13.40
2017-10-08T08:19:55.059Z,13.40
2017-10-08T08:22:21.305Z,13.30
2017-10-08T08:24:47.590Z,13.40
2017-10-08T08:27:13.875Z,13.40
2017-10-08T08:29:40.918Z,13.40
2017-10-08T08:32:07.202Z,13.40
2017-10-08T08:34:34.182Z,13.80
2017-10-08T08:37:00.511Z,13.80
2017-10-08T08:39:26.776Z,14.00
2017-10-08T08:41:53.810Z,15.30
2017-10-08T08:44:20.866Z,15.10
2017-10-08T08:46:47.177Z,15.10
2017-10-08T08:49:13.434Z,14.70
2017-10-08T08:51:39.727Z,14.50
2017-10-08T08:54:06.003Z,14.30
2017-10-08T08:56:32.290Z,14.40
2017-10-08T08:58:58.606Z,14.30
2017-10-08T09:01:25.625Z,14.60
2017-10-08T09:03:51.942Z,14.60
2017-10-08T09:06:18.206Z,14.80
2017-10-08T09:08:44.537Z,15.00
2017-10-08T09:11:10.827Z,15.00
2017-10-08T09:13:37.079Z,15.00
2017-10-08T09:16:03.366Z,14.90
2017-10-08T09:18:29.662Z,14.90
2017-10-08T09:20:55.974Z,14.90
2017-10-08T09:23:22.241Z,15.00
2017-10-08T09:25:48.522Z,15.10
2017-10-08T09:28:14.850Z,15.00
2017-10-08T09:30:41.150Z,15.10
2017-10-08T09:33:07.458Z,15.10
2017-10-08T09:35:33.722Z,15.00
2017-10-08T09:38:00.815Z,14.90
2017-10-08T09:40:27.094Z,14.90
2017-10-08T09:42:54.242Z,14.90
2017-10-08T09:45:20.556Z,14.90
2017-10-08T09:47:46.817Z,14.90
2017-10-08T09:50:13.102Z,14.90
2017-10-08T09:52:39.398Z,14.80
2017-10-08T09:55:06.402Z,14.80
2017-10-08T09:57:33.766Z,14.70
2017-10-08T10:00:00.061Z,14.80
2017-10-08T10:02:27.154Z,15.00
2017-10-08T10:04:53.486Z,14.90
2017-10-08T10:07:19.914Z,15.00
2017-10-08T10:09:46.470Z,14.90
2017-10-08T10:12:12.775Z,14.80
2017-10-08T10:14:40.181Z,14.80
2017-10-08T10:17:07.534Z,14.80
2017-10-08T10:19:33.838Z,14.80
2017-10-08T10:22:00.244Z,14.80
2017-10-08T10:24:26.602Z,14.80
2017-10-08T10:26:53.699Z,14.70
2017-10-08T10:29:20.209Z,14.70
2017-10-08T10:31:47.490Z,14.60
2017-10-08T10:34:14.830Z,14.60
2017-10-08T10:36:41.214Z,14.60
2017-10-08T10:39:07.790Z,14.70
2017-10-08T10:41:34.295Z,14.70
2017-10-08T10:44:00.909Z,14.60
2017-10-08T10:46:27.410Z,14.50
2017-10-08T10:48:53.805Z,14.30
2017-10-08T10:51:20.668Z,14.20
2017-10-08T10:53:47.142Z,14.20
2017-10-08T10:56:14.014Z,14.10
2017-10-08T10:58:41.030Z,14.10
2017-10-08T11:01:07.635Z,13.90
2017-10-08T11:03:34.863Z,13.80
2017-10-08T11:06:02.246Z,14.00
2017-10-08T11:08:29.273Z,14.00
2017-10-08T11:10:55.824Z,14.10
2017-10-08T11:13:22.926Z,14.20
2017-10-08T11:15:50.553Z,14.30
2017-10-08T11:18:17.586Z,14.30
2017-10-08T11:20:45.350Z,14.50
2017-10-08T11:23:12.860Z,14.60
2017-10-08T11:25:41.153Z,14.60
2017-10-08T11:28:08.292Z,14.70
2017-10-08T11:30:35.013Z,14.80
2017-10-08T11:33:01.428Z,14.80
2017-10-08T11:35:28.559Z,15.00
2017-10-08T11:37:55.641Z,15.20
2017-10-08T11:40:22.779Z,15.30
2017-10-08T11:42:50.302Z,15.20
2017-10-08T11:45:18.644Z,15.10
2017-10-08T11:47:46.948Z,14.80
2017-10-08T11:50:14.086Z,14.80
2017-10-08T11:52:42.368Z,14.80
2017-10-08T11:55:09.960Z,14.90
2017-10-08T11:57:38.615Z,14.90
2017-10-08T12:00:06.694Z,14.80
2017-10-08T12:02:35.633Z,14.80
2017-10-08T12:05:03.792Z,14.80
2017-10-08T12:07:31.749Z,14.70
2017-10-08T12:10:00.826Z,14.90
2017-10-08T12:12:28.730Z,14.80
2017-10-08T12:14:56.300Z,14.90
2017-10-08T12:17:23.596Z,14.80
2017-10-08T12:19:51.681Z,14.80
2017-10-08T12:22:19.875Z,14.80
2017-10-08T12:24:47.933Z,14.90
2017-10-08T12:27:16.101Z,15.30
2017-10-08T12:29:43.869Z,15.30
2017-10-08T12:32:11.371Z,15.40
2017-10-08T12:34:40.184Z,15.40
2017-10-08T12:37:07.858Z,15.40
2017-10-08T12:39:35.401Z,15.40
2017-10-08T12:42:02.932Z,15.40
2017-10-08T12:44:30.692Z,15.50
2017-10-08T12:46:59.451Z,15.80
2017-10-08T12:49:28.118Z,16.00
2017-10-08T12:51:57.660Z,15.90
2017-10-08T12:54:25.473Z,15.90
2017-10-08T12:56:55.242Z,15.90
2017-10-08T13:01:58.330Z,15.90
2017-10-08T13:04:26.241Z,15.80
2017-10-08T13:06:53.886Z,15.80
2017-10-08T13:09:21.809Z,15.80
2017-10-08T13:11:49.696Z,15.70
2017-10-08T13:14:17.376Z,15.40
2017-10-08T13:16:46.061Z,15.30
2017-10-08T13:19:13.836Z,15.30
2017-10-08T13:21:41.651Z,15.20
2017-10-08T13:24:10.671Z,15.30
2017-10-08T13:26:38.493Z,15.30
2017-10-08T13:29:07.057Z,15.30
2017-10-08T13:31:36.080Z,15.20
2017-10-08T13:34:04.559Z,15.20
2017-10-08T13:36:33.538Z,15.20
2017-10-08T13:39:02.423Z,15.10
2017-10-08T13:41:30.960Z,15.10
2017-10-08T13:43:58.724Z,15.10
2017-10-08T13:46:26.336Z,15.10
2017-10-08T13:48:55.468Z,15.00
2017-10-08T13:51:23.307Z,15.00
2017-10-08T13:53:51.229Z,14.90
2017-10-08T13:56:20.007Z,14.90
2017-10-08T13:58:47.834Z,14.90
2017-10-08T14:01:15.445Z,14.90
2017-10-08T14:03:43.181Z,14.90
2017-10-08T14:06:10.852Z,14.90
2017-10-08T14:08:39.453Z,15.00
2017-10-08T14:11:06.948Z,15.00
2017-10-08T14:13:34.470Z,15.00
2017-10-08T14:16:02.147Z,15.20
2017-10-08T14:18:30.631Z,15.30
2017-10-08T14:20:58.303Z,15.30
2017-10-08T14:23:25.992Z,15.40
2017-10-08T14:25:54.481Z,15.30
2017-10-08T14:28:22.105Z,15.30
2017-10-08T14:30:49.614Z,15.30
2017-10-08T14:33:17.028Z,15.20
2017-10-08T14:35:44.059Z,15.20
2017-10-08T14:38:11.313Z,15.10
2017-10-08T14:40:38.437Z,15.10
2017-10-08T14:43:05.552Z,15.20
2017-10-08T14:45:32.911Z,15.20
2017-10-08T14:48:01.424Z,15.20
2017-10-08T14:50:28.982Z,15.10
2017-10-08T14:52:56.646Z,15.10
2017-10-08T14:55:24.098Z,15.10
2017-10-08T14:57:51.436Z,15.00
2017-10-08T15:00:20.342Z,14.90
2017-10-08T15:02:47.709Z,14.90
2017-10-08T15:05:15.453Z,14.80
2017-10-08T15:07:42.045Z,14.70
2017-10-08T15:10:09.769Z,14.60
2017-10-08T15:12:38.131Z,14.00
2017-10-08T15:15:05.471Z,13.90
2017-10-08T15:17:34.094Z,13.90
2017-10-08T15:20:02.144Z,13.80
2017-10-08T15:22:31.933Z,13.70
2017-10-08T15:24:59.685Z,13.70
2017-10-08T15:27:27.637Z,13.70
2017-10-08T15:29:55.419Z,13.60
2017-10-08T15:32:23.249Z,13.60
2017-10-08T15:34:50.976Z,13.60
2017-10-08T15:37:18.578Z,13.60
2017-10-08T15:39:46.221Z,13.60
2017-10-08T15:42:14.826Z,13.60
2017-10-08T15:44:43.358Z,13.60
2017-10-08T15:47:11.903Z,13.50
2017-10-08T15:49:41.002Z,13.50
2017-10-08T15:52:08.805Z,13.50
2017-10-08T15:54:36.365Z,13.50
2017-10-08T15:57:05.422Z,13.50
2017-10-08T15:59:34.108Z,13.40
2017-10-08T16:02:03.264Z,13.40
2017-10-08T16:04:33.172Z,13.30
2017-10-08T16:07:02.249Z,13.30
2017-10-08T16:09:31.252Z,13.30
2017-10-08T16:12:00.401Z,13.30
2017-10-08T16:14:30.494Z,13.20
2017-10-08T16:16:59.286Z,13.20
2017-10-08T16:19:28.167Z,13.20
2017-10-08T16:21:57.188Z,13.20
2017-10-08T16:24:25.946Z,13.20
2017-10-08T16:26:53.787Z,13.20
2017-10-08T16:29:22.274Z,13.10
2017-10-08T16:31:50.140Z,13.10
2017-10-08T16:34:18.616Z,13.10
2017-10-08T16:36:46.393Z,13.10
2017-10-08T16:39:14.353Z,13.10
2017-10-08T16:41:42.116Z,13.00
2017-10-08T16:44:09.924Z,13.00
2017-10-08T16:46:39.476Z,12.90
2017-10-08T16:49:07.212Z,12.90
2017-10-08T16:51:35.062Z,13.00
2017-10-08T16:54:04.030Z,12.90
2017-10-08T16:56:31.997Z,12.90
2017-10-08T16:58:59.947Z,12.90
2017-10-08T17:01:27.735Z,12.80
2017-10-08T17:03:55.586Z,12.90
2017-10-08T17:06:23.326Z,12.80
2017-10-08T17:08:51.332Z,12.90
2017-10-08T17:11:19.083Z,12.80
2017-10-08T17:13:46.952Z,12.80
2017-10-08T17:16:14.833Z,12.80
2017-10-08T17:18:42.669Z,12.70
2017-10-08T17:21:10.456Z,12.70
2017-10-08T17:23:38.294Z,12.70
2017-10-08T17:26:06.144Z,12.70
2017-10-08T17:28:34.709Z,12.70
2017-10-08T17:31:02.691Z,12.70
2017-10-08T17:33:30.439Z,12.60
2017-10-08T17:35:58.922Z,12.60
2017-10-08T17:38:26.974Z,12.60
2017-10-08T17:40:54.783Z,12.60
2017-10-08T17:43:22.672Z,12.60
2017-10-08T17:45:50.593Z,12.60
2017-10-08T17:48:18.312Z,12.60
2017-10-08T17:50:46.186Z,12.50
2017-10-08T17:53:14.050Z,12.50
2017-10-08T17:55:41.993Z,12.50
2017-10-08T17:58:09.752Z,12.50
2017-10-08T18:00:38.409Z,12.50
2017-10-08T18:03:06.290Z,12.50
2017-10-08T18:05:35.222Z,12.50
2017-10-08T18:08:03.228Z,12.50
2017-10-08T18:10:31.219Z,12.50
2017-10-08T18:12:59.014Z,12.50
2017-10-08T18:15:26.906Z,12.50
2017-10-08T18:17:54.938Z,12.50
2017-10-08T18:20:23.914Z,12.50
2017-10-08T18:22:52.105Z,12.50
2017-10-08T18:25:20.271Z,12.50
2017-10-08T18:27:48.045Z,12.40
2017-10-08T18:30:16.727Z,12.40
2017-10-08T18:32:45.399Z,12.30
2017-10-08T18:35:13.308Z,12.30
2017-10-08T18:37:41.313Z,12.30
2017-10-08T18:40:10.921Z,12.20
2017-10-08T18:42:38.826Z,12.20
2017-10-08T18:45:07.571Z,12.20
2017-10-08T18:47:36.147Z,12.20
2017-10-08T18:50:04.067Z,12.20
2017-10-08T18:52:33.145Z,12.20
2017-10-08T18:55:01.173Z,12.20
2017-10-08T18:57:30.523Z,12.30
2017-10-08T18:59:58.544Z,12.30
2017-10-08T19:02:26.344Z,12.30
2017-10-08T19:04:54.337Z,12.30
2017-10-08T19:07:22.708Z,12.30
2017-10-08T19:09:50.612Z,12.30
2017-10-08T19:12:18.428Z,12.30
2017-10-08T19:14:46.332Z,12.30
2017-10-08T19:17:14.243Z,12.40
2017-10-08T19:19:42.183Z,12.30
2017-10-08T19:22:10.917Z,12.30
2017-10-08T19:24:40.188Z,12.30
2017-10-08T19:27:10.469Z,12.30
2017-10-08T19:29:39.853Z,12.30
2017-10-08T19:32:07.855Z,12.30
2017-10-08T19:34:35.788Z,12.30
2017-10-08T19:37:04.465Z,12.30
2017-10-08T19:39:33.519Z,12.30
2017-10-08T19:42:01.320Z,12.30
2017-10-08T19:44:30.169Z,12.30
2017-10-08T19:46:58.536Z,12.30
2017-10-08T19:49:26.899Z,12.30
2017-10-08T19:51:57.001Z,12.30
2017-10-08T19:54:25.624Z,12.30
2017-10-08T19:56:54.944Z,12.30
2017-10-08T19:59:25.668Z,12.30
2017-10-08T20:01:55.524Z,12.30
2017-10-08T20:04:24.830Z,12.20
2017-10-08T20:06:53.710Z,12.20
2017-10-08T20:09:21.869Z,12.20
2017-10-08T20:11:51.662Z,12.20
2017-10-08T20:14:21.073Z,12.20
2017-10-08T20:16:49.670Z,12.20
2017-10-08T20:19:17.599Z,12.20
2017-10-08T20:21:45.546Z,12.10
2017-10-08T20:24:13.343Z,12.10
2017-10-08T20:26:41.391Z,12.10
2017-10-08T20:29:09.182Z,12.10
2017-10-08T20:31:37.835Z,12.00
2017-10-08T20:34:06.489Z,12.00
2017-10-08T20:36:34.404Z,12.00
2017-10-08T20:39:02.321Z,12.00
2017-10-08T20:41:31.744Z,12.00
2017-10-08T20:43:59.628Z,11.90
2017-10-08T20:46:27.517Z,11.90
2017-10-08T20:48:55.407Z,11.90
2017-10-08T20:51:23.341Z,11.90
2017-10-08T20:53:51.161Z,11.90
2017-10-08T20:56:19.901Z,11.80
2017-10-08T20:58:47.672Z,11.80
2017-10-08T21:01:15.544Z,11.70
2017-10-08T21:03:43.445Z,11.70
2017-10-08T21:06:11.212Z,11.70
2017-10-08T21:08:39.077Z,11.60
2017-10-08T21:11:06.886Z,11.50
2017-10-08T21:13:34.784Z,11.50
2017-10-08T21:16:02.647Z,11.50
2017-10-08T21:18:30.553Z,11.50
2017-10-08T21:20:58.466Z,11.50
2017-10-08T21:23:26.201Z,11.50
2017-10-08T21:25:54.105Z,11.40
2017-10-08T21:28:21.802Z,11.40
2017-10-08T21:30:49.546Z,11.40
2017-10-08T21:33:17.498Z,11.30
2017-10-08T21:35:45.247Z,11.30
2017-10-08T21:38:13.791Z,11.40
2017-10-08T21:40:41.749Z,11.30
2017-10-08T21:43:09.625Z,11.40
2017-10-08T21:45:36.988Z,11.40
2017-10-08T21:48:04.208Z,11.40
2017-10-08T21:50:32.037Z,11.40
2017-10-08T21:52:58.962Z,11.40
2017-10-08T21:55:26.456Z,11.40
2017-10-08T21:57:53.256Z,11.40
2017-10-08T22:00:20.619Z,11.40
2017-10-08T22:02:46.967Z,11.40
2017-10-08T22:05:13.250Z,11.40
2017-10-08T22:07:40.263Z,11.40
2017-10-08T22:10:06.555Z,11.40
2017-10-08T22:12:32.831Z,11.40
2017-10-08T22:14:59.102Z,11.40
2017-10-08T22:17:25.402Z,11.40
2017-10-08T22:19:52.439Z,11.40
2017-10-08T22:22:18.698Z,11.40
2017-10-08T22:24:44.954Z,11.40
2017-10-08T22:27:11.998Z,11.40
2017-10-08T22:29:38.262Z,11.40
2017-10-08T22:32:06.630Z,11.40
2017-10-08T22:34:32.922Z,11.40
2017-10-08T22:36:59.170Z,11.40
2017-10-08T22:39:25.482Z,11.40
2017-10-08T22:41:51.750Z,11.40
2017-10-08T22:44:18.746Z,11.30
2017-10-08T22:46:45.023Z,11.30
2017-10-08T22:49:11.325Z,11.30
2017-10-08T22:51:37.601Z,11.30
2017-10-08T22:54:03.858Z,11.30
2017-10-08T22:56:30.138Z,11.30
2017-10-08T22:58:56.419Z,11.20
2017-10-08T23:01:22.658Z,11.20
2017-10-08T23:03:49.738Z,11.10
2017-10-08T23:06:16.010Z,11.10
2017-10-08T23:08:42.258Z,11.10
2017-10-08T23:11:08.570Z,11.10
2017-10-08T23:13:34.822Z,11.00
2017-10-08T23:16:01.111Z,11.00
2017-10-08T23:18:27.870Z,11.00
2017-10-08T23:20:54.262Z,11.00
2017-10-08T23:23:20.567Z,10.90
2017-10-08T23:25:46.871Z,10.90
2017-10-08T23:28:13.134Z,10.80
2017-10-08T23:30:39.399Z,10.80
2017-10-08T23:33:05.692Z,10.70
2017-10-08T23:35:32.734Z,10.40
2017-10-08T23:37:59.019Z,10.40
2017-10-08T23:40:26.314Z,10.40
2017-10-08T23:42:52.567Z,10.40
2017-10-08T23:45:18.850Z,10.40
2017-10-08T23:47:45.134Z,10.30
2017-10-08T23:50:11.407Z,10.20
2017-10-08T23:52:37.657Z,10.10
2017-10-08T23:55:03.967Z,10.00
2017-10-08T23:57:30.273Z,9.80
2017-10-08T23:59:57.274Z,9.90
